createdAt,value
2022-08-11T00:07:56.954Z,100087.80
2022-08-11T00:17:31.621Z,100088.41
2022-08-11T00:27:07.558Z,100085.81
2022-08-11T00:36:40.082Z,100085.62
2022-08-11T00:46:14.534Z,100085.23
2022-08-11T00:55:55.663Z,100088.73
2022-08-11T01:05:23.692Z,100087.47
2022-08-11T01:06:26.341Z,100085.92
2022-08-11T01:15:59.466Z,100096.44
2022-08-11T01:25:56.587Z,100090.58
2022-08-11T01:35:08.713Z,100088.59
2022-08-11T01:44:43.541Z,100095.79
2022-08-11T01:54:18.150Z,100095.25
2022-08-11T02:03:52.426Z,100100.29
2022-08-11T02:13:28.715Z,100095.13
2022-08-11T02:23:02.868Z,100103.72
2022-08-11T02:32:37.172Z,100100.47
2022-08-11T02:42:31.903Z,100089.48
2022-08-11T02:51:43.541Z,100087.30
2022-08-11T03:01:19.677Z,100090.36
2022-08-11T03:10:51.920Z,100087.13
2022-08-11T03:20:26.456Z,100091.98
2022-08-11T03:30:02.239Z,100087.25
2022-08-11T03:39:34.833Z,100088.61
2022-08-11T03:49:10.569Z,100093.41
2022-08-11T03:58:46.134Z,100092.26
2022-08-11T04:08:19.224Z,100093.52
2022-08-11T04:17:51.799Z,100093.19
2022-08-11T04:27:32.777Z,100085.11
2022-08-11T04:37:01.910Z,100089.71
2022-08-11T04:46:36.028Z,100094.86
2022-08-11T04:56:10.690Z,100097.61
2022-08-11T05:05:54.593Z,100098.82
2022-08-11T05:15:19.728Z,100103.77
2022-08-11T05:24:52.753Z,100109.59
2022-08-11T05:34:27.498Z,100113.61
2022-08-11T05:44:19.541Z,100119.61
2022-08-11T05:53:46.026Z,100123.34
2022-08-11T06:03:11.363Z,100133.72
2022-08-11T06:12:46.390Z,100140.53
2022-08-11T06:22:22.539Z,100140.88
2022-08-11T06:23:24.871Z,100141.98
2022-08-11T06:24:28.953Z,100136.94
2022-08-11T06:25:31.314Z,100139.31
2022-08-11T06:26:49.506Z,100136.57
2022-08-11T06:36:07.181Z,100139.17
2022-08-11T06:37:09.710Z,100133.64
2022-08-11T06:38:13.778Z,100137.92
2022-08-11T06:39:17.770Z,100139.28
2022-08-11T06:40:20.056Z,100135.54
2022-08-11T06:41:22.596Z,100137.85
2022-08-11T06:42:25.042Z,100138.59
2022-08-11T06:43:27.518Z,100142.94
2022-08-11T06:44:29.974Z,100137.42
2022-08-11T06:45:32.446Z,100137.93
2022-08-11T06:46:36.566Z,100136.10
2022-08-11T06:47:38.888Z,100137.98
2022-08-11T06:48:41.394Z,100138.33
2022-08-11T06:49:43.848Z,100139.34
2022-08-11T06:59:17.058Z,100138.85
2022-08-11T07:00:19.623Z,100138.06
2022-08-11T07:01:22.133Z,100137.83
2022-08-11T07:02:30.609Z,100139.38
2022-08-11T07:03:28.566Z,100140.02
2022-08-11T07:04:31.051Z,100141.81
2022-08-11T07:05:33.524Z,100145.48
2022-08-11T07:06:50.164Z,100145.59
2022-08-11T07:07:41.499Z,100142.31
2022-08-11T07:08:43.793Z,100142.98
2022-08-11T07:09:47.999Z,100137.48
2022-08-11T07:10:50.318Z,100133.63
2022-08-11T07:11:52.831Z,100138.88
2022-08-11T07:12:56.946Z,100136.90
2022-08-11T07:13:59.260Z,100136.87
2022-08-11T07:15:01.742Z,100135.63
2022-08-11T07:16:12.010Z,100132.66
2022-08-11T07:17:08.326Z,100137.23
2022-08-11T07:18:12.281Z,100136.30
2022-08-11T07:19:16.524Z,100137.45
2022-08-11T07:20:20.132Z,100137.94
2022-08-11T07:21:42.953Z,100140.58
2022-08-11T07:22:26.407Z,100138.84
2022-08-11T07:23:28.896Z,100139.05
2022-08-11T07:24:34.227Z,100134.78
2022-08-11T07:25:35.454Z,100143.13
2022-08-11T07:26:37.795Z,100137.69
2022-08-11T07:27:40.298Z,100134.13
2022-08-11T07:28:44.381Z,100136.71
2022-08-11T07:29:46.670Z,100135.30
2022-08-11T07:30:51.725Z,100135.67
2022-08-11T07:31:51.690Z,100135.19
2022-08-11T07:32:54.138Z,100131.48
2022-08-11T07:34:06.039Z,100134.45
2022-08-11T07:43:30.318Z,100127.38
2022-08-11T07:44:35.210Z,100129.41
2022-08-11T07:45:37.191Z,100127.14
2022-08-11T07:46:41.153Z,100131.52
2022-08-11T07:47:45.099Z,100126.86
2022-08-11T07:48:47.411Z,100124.52
2022-08-11T07:49:49.897Z,100120.25
2022-08-11T07:50:55.964Z,100122.78
2022-08-11T07:51:54.814Z,100125.81
2022-08-11T07:52:57.530Z,100125.73
2022-08-11T07:54:16.724Z,100126.02
2022-08-11T07:55:02.502Z,100125.89
2022-08-11T07:56:05.016Z,100125.67
2022-08-11T07:57:09.558Z,100125.27
2022-08-11T07:58:14.868Z,100131.06
2022-08-11T07:59:12.476Z,100127.47
2022-08-11T08:00:15.002Z,100128.45
2022-08-11T08:01:22.131Z,100129.34
2022-08-11T08:02:21.557Z,100129.66
2022-08-11T08:03:23.936Z,100121.47
2022-08-11T08:04:26.411Z,100133.02
2022-08-11T08:05:30.466Z,100130.59
2022-08-11T08:06:35.936Z,100133.06
2022-08-11T08:07:35.355Z,100132.37
2022-08-11T08:08:37.797Z,100128.55
2022-08-11T08:09:41.894Z,100138.53
2022-08-11T08:10:44.331Z,100132.45
2022-08-11T08:11:46.813Z,100138.03
2022-08-11T08:12:49.316Z,100134.39
2022-08-11T08:22:38.586Z,100134.60
2022-08-11T08:23:28.336Z,100136.01
2022-08-11T08:24:32.332Z,100137.45
2022-08-11T08:25:36.316Z,100138.57
2022-08-11T08:26:40.272Z,100143.25
2022-08-11T08:27:42.658Z,100137.21
2022-08-11T08:28:46.835Z,100135.68
2022-08-11T08:29:49.115Z,100140.63
2022-08-11T08:30:51.632Z,100133.42
2022-08-11T08:31:54.104Z,100137.81
2022-08-11T08:32:56.577Z,100131.14
2022-08-11T08:33:59.105Z,100139.73
2022-08-11T08:35:03.228Z,100138.90
2022-08-11T08:36:05.659Z,100142.09
2022-08-11T08:37:15.570Z,100148.13
2022-08-11T08:38:14.257Z,100141.42
2022-08-11T08:39:17.740Z,100143.67
2022-08-11T08:40:20.067Z,100146.34
2022-08-11T08:41:22.521Z,100143.23
2022-08-11T08:42:24.961Z,100146.55
2022-08-11T08:43:29.049Z,100139.86
2022-08-11T08:44:41.116Z,100140.55
2022-08-11T08:45:33.903Z,100142.63
2022-08-11T08:46:36.391Z,100140.94
2022-08-11T08:47:42.793Z,100128.78
2022-08-11T08:48:41.373Z,100132.48
2022-08-11T08:49:43.857Z,100140.89
2022-08-11T08:51:55.013Z,100138.86
2022-08-11T08:52:27.791Z,100139.95
2022-08-11T08:52:51.590Z,100135.97
2022-08-11T08:53:53.945Z,100138.88
2022-08-11T08:54:56.356Z,100132.78
2022-08-11T08:55:58.809Z,100138.50
2022-08-11T08:57:01.339Z,100142.04
2022-08-11T08:58:05.415Z,100142.55
2022-08-11T08:59:09.442Z,100145.74
2022-08-11T09:00:14.402Z,100140.83
2022-08-11T09:01:17.556Z,100143.42
2022-08-11T09:02:19.846Z,100141.81
2022-08-11T09:03:40.850Z,100141.50
2022-08-11T09:04:24.784Z,100140.12
2022-08-11T09:05:27.309Z,100144.35
2022-08-11T09:06:29.791Z,100138.14
2022-08-11T09:07:36.217Z,100139.44
2022-08-11T09:08:37.946Z,100136.09
2022-08-11T09:09:40.399Z,100139.78
2022-08-11T09:10:42.855Z,100138.60
2022-08-11T09:11:45.354Z,100141.09
2022-08-11T09:12:48.014Z,100139.91
2022-08-11T09:14:03.456Z,100140.19
2022-08-11T09:14:55.888Z,100138.47
2022-08-11T09:15:58.238Z,100139.84
2022-08-11T09:17:00.730Z,100137.77
2022-08-11T09:18:04.779Z,100135.28
2022-08-11T09:19:07.102Z,100138.55
2022-08-11T09:20:11.224Z,100139.79
2022-08-11T09:21:13.604Z,100137.89
2022-08-11T09:22:16.099Z,100141.33
2022-08-11T09:24:07.621Z,100138.34
2022-08-11T09:24:25.985Z,100139.10
2022-08-11T09:25:23.582Z,100135.85
2022-08-11T09:26:30.647Z,100138.88
2022-08-11T09:27:28.634Z,100135.02
2022-08-11T09:28:31.038Z,100130.97
2022-08-11T09:29:33.570Z,100127.62
2022-08-11T09:30:37.656Z,100134.78
2022-08-11T09:31:40.581Z,100128.56
2022-08-11T09:32:42.473Z,100128.13
2022-08-11T09:33:45.042Z,100136.22
2022-08-11T09:34:47.520Z,100138.55
2022-08-11T09:35:49.975Z,100144.81
2022-08-11T09:36:52.485Z,100137.17
2022-08-11T09:37:56.461Z,100135.50
2022-08-11T09:38:57.489Z,100140.59
2022-08-11T09:39:59.996Z,100127.13
2022-08-11T09:41:02.504Z,100129.38
2022-08-11T09:42:05.001Z,100135.85
2022-08-11T09:43:09.058Z,100135.25
2022-08-11T09:44:13.017Z,100136.55
2022-08-11T09:45:15.376Z,100133.87
2022-08-11T09:54:48.698Z,100131.89
2022-08-11T09:55:52.655Z,100130.16
2022-08-11T09:56:55.074Z,100130.13
2022-08-11T09:57:57.569Z,100128.20
2022-08-11T09:59:00.072Z,100132.13
2022-08-11T10:00:09.378Z,100125.41
2022-08-11T10:01:06.582Z,100131.13
2022-08-11T10:02:09.037Z,100133.38
2022-08-11T10:03:11.559Z,100133.33
2022-08-11T10:04:14.062Z,100128.52
2022-08-11T10:05:16.541Z,100124.09
2022-08-11T10:06:20.631Z,100127.00
2022-08-11T10:07:24.619Z,100123.30
2022-08-11T10:08:26.945Z,100126.06
2022-08-11T10:09:29.416Z,100124.84
2022-08-11T10:10:31.917Z,100126.23
2022-08-11T10:11:34.406Z,100135.48
2022-08-11T10:12:36.886Z,100122.73
2022-08-11T10:13:44.205Z,100126.17
2022-08-11T10:14:44.615Z,100127.33
2022-08-11T10:15:59.932Z,100127.97
2022-08-11T10:16:46.923Z,100128.30
2022-08-11T10:17:51.032Z,100125.08
2022-08-11T10:18:55.057Z,100122.98
2022-08-11T10:20:03.839Z,100123.61
2022-08-11T10:21:01.348Z,100119.13
2022-08-11T10:22:05.401Z,100117.23
2022-08-11T10:23:07.745Z,100121.44
2022-08-11T10:24:10.253Z,100121.75
2022-08-11T10:25:12.730Z,100129.95
2022-08-11T10:26:16.771Z,100127.93
2022-08-11T10:27:19.111Z,100116.51
2022-08-11T10:28:33.294Z,100123.38
2022-08-11T10:29:24.125Z,100117.53
2022-08-11T10:30:26.586Z,100113.47
2022-08-11T10:31:29.074Z,100111.87
2022-08-11T10:32:33.214Z,100121.97
2022-08-11T10:33:37.111Z,100119.47
2022-08-11T10:34:38.064Z,100123.09
2022-08-11T10:35:40.566Z,100125.48
2022-08-11T10:36:44.661Z,100112.83
2022-08-11T10:38:06.930Z,100111.45
2022-08-11T10:38:51.081Z,100113.46
2022-08-11T10:39:53.665Z,100112.37
2022-08-11T10:40:56.066Z,100107.97
2022-08-11T10:42:01.917Z,100107.93
2022-08-11T10:43:02.735Z,100103.44
2022-08-11T10:44:06.619Z,100110.11
2022-08-11T10:45:08.956Z,100107.92
2022-08-11T10:46:13.127Z,100104.91
2022-08-11T10:47:15.502Z,100100.16
2022-08-11T10:48:18.861Z,100100.05
2022-08-11T10:49:22.911Z,100097.14
2022-08-11T10:50:25.294Z,100096.93
2022-08-11T10:51:50.373Z,100089.81
2022-08-11T10:52:33.424Z,100096.05
2022-08-11T10:53:37.353Z,100086.28
2022-08-11T10:54:41.291Z,100089.00
2022-08-11T10:55:43.650Z,100091.55
2022-08-11T10:56:47.777Z,100089.14
2022-08-11T10:58:04.483Z,100090.48
2022-08-11T10:58:52.723Z,100090.69
2022-08-11T10:59:55.202Z,100089.34
2022-08-11T11:00:59.356Z,100084.51
2022-08-11T11:02:01.641Z,100077.63
2022-08-11T11:03:07.157Z,100066.44
2022-08-11T11:04:06.683Z,100080.22
2022-08-11T11:05:10.799Z,100079.30
2022-08-11T11:06:28.001Z,100073.73
2022-08-11T11:07:15.653Z,100083.86
2022-08-11T11:08:19.730Z,100083.39
2022-08-11T11:09:22.068Z,100083.22
2022-08-11T11:10:24.578Z,100084.16
2022-08-11T11:11:28.694Z,100075.42
2022-08-11T11:12:32.647Z,100079.15
2022-08-11T11:13:35.025Z,100078.70
2022-08-11T11:14:45.984Z,100084.37
2022-08-11T11:15:40.026Z,100078.75
2022-08-11T11:16:42.531Z,100070.76
2022-08-11T11:17:46.638Z,100074.44
2022-08-11T11:19:00.468Z,100073.83
2022-08-11T11:19:51.521Z,100068.03
2022-08-11T11:20:55.627Z,100059.02
2022-08-11T11:21:59.617Z,100067.30
2022-08-11T11:31:32.046Z,100047.95
2022-08-11T11:32:36.219Z,100044.95
2022-08-11T11:33:57.539Z,100052.66
2022-08-11T11:34:47.840Z,100054.81
2022-08-11T11:35:45.097Z,100038.20
2022-08-11T11:36:49.220Z,100044.52
2022-08-11T11:37:56.071Z,100049.48
2022-08-11T11:38:54.076Z,100048.31
2022-08-11T11:39:58.180Z,100040.79
2022-08-11T11:41:02.227Z,100042.45
2022-08-11T11:42:04.569Z,100042.50
2022-08-11T11:43:07.416Z,100045.16
2022-08-11T11:44:09.806Z,100038.30
2022-08-11T11:45:22.869Z,100034.42
2022-08-11T11:46:16.466Z,100038.90
2022-08-11T11:47:18.785Z,100031.94
2022-08-11T11:48:21.303Z,100034.67
2022-08-11T11:50:26.352Z,100031.05
2022-08-11T11:51:30.459Z,100028.55
2022-08-11T11:52:32.831Z,100026.22
2022-08-11T11:53:35.326Z,100031.88
2022-08-11T11:54:39.422Z,100029.75
2022-08-11T11:55:43.356Z,100030.45
2022-08-11T11:56:45.710Z,100031.19
2022-08-11T11:57:58.461Z,100024.69
2022-08-11T11:58:50.727Z,100025.26
2022-08-11T11:59:55.058Z,100013.88
2022-08-11T12:00:57.401Z,100014.06
2022-08-11T12:01:59.885Z,100010.84
2022-08-11T12:03:02.463Z,100012.60
2022-08-11T12:04:06.470Z,100014.50
2022-08-11T12:05:10.406Z,100014.21
2022-08-11T12:06:12.796Z,100012.63
2022-08-11T12:07:15.300Z,100020.98
2022-08-11T12:08:19.353Z,100011.70
2022-08-11T12:09:21.718Z,100010.66
2022-08-11T12:10:25.805Z,100001.49
2022-08-11T12:11:28.172Z,100003.63
2022-08-11T12:12:32.359Z,100003.70
2022-08-11T12:13:34.700Z,100002.47
2022-08-11T12:14:39.007Z,100004.25
2022-08-11T12:16:32.671Z,99998.75
2022-08-11T12:16:44.050Z,100000.67
2022-08-11T12:17:49.844Z,99999.72
2022-08-11T12:18:49.563Z,99998.50
2022-08-11T12:19:53.328Z,100006.31
2022-08-11T12:20:57.354Z,100009.80
2022-08-11T12:22:01.508Z,99996.82
2022-08-11T12:23:05.238Z,100001.48
2022-08-11T12:24:07.550Z,100004.69
2022-08-11T12:33:40.876Z,99979.90
2022-08-11T12:34:43.463Z,99990.17
2022-08-11T12:36:00.826Z,99986.35
2022-08-11T12:36:50.002Z,99983.20
2022-08-11T12:37:53.544Z,99980.67
2022-08-11T12:38:55.100Z,99982.61
2022-08-11T12:40:13.143Z,99974.66
2022-08-11T12:41:17.214Z,99974.64
2022-08-11T12:42:04.173Z,99972.69
2022-08-11T12:43:20.646Z,99980.69
2022-08-11T12:44:12.134Z,99971.97
2022-08-11T12:45:22.122Z,99977.35
2022-08-11T12:46:17.061Z,99974.23
2022-08-11T12:47:19.532Z,99971.19
2022-08-11T12:48:49.687Z,99970.94
2022-08-11T12:49:27.716Z,99969.16
2022-08-11T12:50:30.082Z,99971.44
2022-08-11T12:51:38.267Z,99975.14
2022-08-11T12:52:36.577Z,99979.86
2022-08-11T12:53:39.030Z,99981.90
2022-08-11T12:54:43.099Z,99974.32
2022-08-11T12:56:04.005Z,99958.59
2022-08-11T12:56:49.449Z,99962.77
2022-08-11T12:57:51.955Z,99963.48
2022-08-11T12:58:56.153Z,99957.08
2022-08-11T12:59:58.646Z,99957.64
2022-08-11T13:01:01.229Z,99960.11
2022-08-11T13:02:03.704Z,99951.41
2022-08-11T13:03:06.269Z,99959.52
2022-08-11T13:04:08.761Z,99958.36
2022-08-11T13:05:11.273Z,99955.75
2022-08-11T13:06:13.836Z,99953.98
2022-08-11T13:07:16.299Z,99958.09
2022-08-11T13:08:18.838Z,99946.81
2022-08-11T13:09:21.369Z,99948.49
2022-08-11T13:10:25.487Z,99947.66
2022-08-11T13:11:54.709Z,99938.15
2022-08-11T13:12:31.900Z,99951.33
2022-08-11T13:13:53.235Z,99954.19
2022-08-11T13:14:38.522Z,99958.24
2022-08-11T13:15:40.912Z,99953.91
2022-08-11T13:16:43.439Z,99957.36
2022-08-11T13:17:45.992Z,99956.52
2022-08-11T13:18:50.038Z,99948.60
2022-08-11T13:19:52.432Z,99951.22
2022-08-11T13:20:54.963Z,99943.64
2022-08-11T13:21:58.995Z,99951.31
2022-08-11T13:23:01.351Z,99948.86
2022-08-11T13:24:05.471Z,99942.01
2022-08-11T13:25:09.499Z,99944.14
2022-08-11T13:26:11.878Z,99948.06
2022-08-11T13:27:14.387Z,99945.42
2022-08-11T13:28:16.910Z,99939.66
2022-08-11T13:29:21.046Z,99944.16
2022-08-11T13:30:23.478Z,99931.50
2022-08-11T13:31:25.999Z,99928.77
2022-08-11T13:32:28.608Z,99928.72
2022-08-11T13:33:31.080Z,99932.13
2022-08-11T13:34:35.190Z,99925.34
2022-08-11T13:35:39.193Z,99928.47
2022-08-11T13:36:41.564Z,99926.59
2022-08-11T13:38:18.186Z,99950.28
2022-08-11T13:38:50.104Z,99926.34
2022-08-11T13:39:52.199Z,99927.97
2022-08-11T13:40:55.892Z,99928.58
2022-08-11T13:41:58.622Z,99924.25
2022-08-11T13:43:02.593Z,99919.41
2022-08-11T13:44:04.976Z,99915.64
2022-08-11T13:45:07.545Z,99921.27
2022-08-11T13:46:11.632Z,99921.05
2022-08-11T13:47:14.095Z,99924.91
2022-08-11T13:48:16.639Z,99919.28
2022-08-11T13:49:19.193Z,99913.94
2022-08-11T13:50:21.678Z,99912.61
2022-08-11T13:51:26.158Z,99913.66
2022-08-11T13:52:28.154Z,99909.98
2022-08-11T13:53:30.708Z,99917.66
2022-08-11T13:54:34.834Z,99908.98
2022-08-11T13:55:51.250Z,99910.42
2022-08-11T13:56:39.858Z,99905.19
2022-08-11T13:58:06.942Z,99901.77
2022-08-11T13:58:46.977Z,99896.02
2022-08-11T13:59:52.577Z,99896.95
2022-08-11T14:00:52.383Z,99896.06
2022-08-11T14:02:04.294Z,99893.52
2022-08-11T14:02:56.644Z,99897.75
2022-08-11T14:04:29.642Z,99891.19
2022-08-11T14:05:03.068Z,99894.02
2022-08-11T14:06:05.546Z,99892.16
2022-08-11T14:07:08.098Z,99895.83
2022-08-11T14:08:31.721Z,99899.42
2022-08-11T14:09:14.793Z,99895.88
2022-08-11T14:10:18.756Z,99894.34
2022-08-11T14:12:20.940Z,99893.18
2022-08-11T14:12:25.277Z,99889.08
2022-08-11T14:13:29.277Z,99890.05
2022-08-11T14:14:31.716Z,99886.41
2022-08-11T14:15:34.190Z,99887.92
2022-08-11T14:16:36.710Z,99888.77
2022-08-11T14:17:48.571Z,99885.11
2022-08-11T14:18:43.287Z,99876.23
2022-08-11T14:19:45.676Z,99870.12
2022-08-11T14:20:48.181Z,99884.87
2022-08-11T14:21:54.142Z,99887.82
2022-08-11T14:22:54.688Z,99884.22
2022-08-11T14:23:57.236Z,99877.13
2022-08-11T14:24:59.725Z,99876.58
2022-08-11T14:26:02.823Z,99876.86
2022-08-11T14:27:04.780Z,99871.11
2022-08-11T14:28:30.816Z,99869.67
2022-08-11T14:29:12.958Z,99869.42
2022-08-11T14:30:16.925Z,99868.83
2022-08-11T14:31:19.325Z,99861.91
2022-08-11T14:32:23.407Z,99869.84
2022-08-11T14:33:27.435Z,99866.80
2022-08-11T14:34:29.878Z,99863.85
2022-08-11T14:35:33.984Z,99866.56
2022-08-11T14:36:37.918Z,99860.22
2022-08-11T14:37:41.965Z,99858.73
2022-08-11T14:38:45.947Z,99861.66
2022-08-11T14:39:50.066Z,99864.52
2022-08-11T14:40:54.091Z,99864.98
2022-08-11T14:42:07.906Z,99864.95
2022-08-11T14:43:00.441Z,99864.80
2022-08-11T14:44:04.835Z,99860.89
2022-08-11T14:45:05.439Z,99857.98
2022-08-11T14:46:09.582Z,99852.06
2022-08-11T14:47:23.537Z,99844.58
2022-08-11T14:48:16.010Z,99845.81
2022-08-11T14:49:18.382Z,99847.35
2022-08-11T14:50:20.938Z,99845.93
2022-08-11T14:51:24.009Z,99845.29
2022-08-11T14:52:26.008Z,99840.59
2022-08-11T14:53:28.558Z,99835.67
2022-08-11T14:54:31.028Z,99833.86
2022-08-11T14:55:33.566Z,99835.28
2022-08-11T14:56:37.691Z,99839.94
2022-08-11T14:57:54.625Z,99834.02
2022-08-11T14:58:45.630Z,99830.50
2022-08-11T14:59:49.624Z,99834.81
2022-08-11T15:00:52.108Z,99829.58
2022-08-11T15:01:54.513Z,99826.98
2022-08-11T15:02:58.719Z,99824.98
2022-08-11T15:04:04.613Z,99825.67
2022-08-11T15:05:03.509Z,99836.05
2022-08-11T15:06:06.019Z,99831.97
2022-08-11T15:07:17.099Z,99833.38
2022-08-11T15:08:14.131Z,99828.33
2022-08-11T15:09:18.153Z,99837.61
2022-08-11T15:10:22.190Z,99836.83
2022-08-11T15:11:26.107Z,99832.44
2022-08-11T15:12:31.356Z,99836.71
2022-08-11T15:13:34.140Z,99829.58
2022-08-11T15:14:36.520Z,99829.39
2022-08-11T15:15:40.669Z,99832.16
2022-08-11T15:16:44.722Z,99830.19
2022-08-11T15:17:47.312Z,99820.94
2022-08-11T15:18:51.229Z,99828.38
2022-08-11T15:19:55.266Z,99822.91
2022-08-11T15:20:57.657Z,99825.09
2022-08-11T15:22:01.812Z,99811.95
2022-08-11T15:23:06.225Z,99825.72
2022-08-11T15:24:08.570Z,99824.13
2022-08-11T15:25:11.094Z,99825.27
2022-08-11T15:26:15.266Z,99815.08
2022-08-11T15:27:17.664Z,99821.70
2022-08-11T15:28:20.153Z,99821.75
2022-08-11T15:29:23.586Z,99827.41
2022-08-11T15:30:32.053Z,99824.52
2022-08-11T15:31:29.423Z,99829.28
2022-08-11T15:32:31.823Z,99824.47
2022-08-11T15:33:34.304Z,99818.05
2022-08-11T15:34:36.839Z,99820.97
2022-08-11T15:35:40.951Z,99824.36
2022-08-11T15:36:44.941Z,99821.34
2022-08-11T15:37:48.975Z,99816.44
2022-08-11T15:38:55.121Z,99812.97
2022-08-11T15:39:53.967Z,99817.74
2022-08-11T15:40:56.363Z,99810.78
2022-08-11T15:41:59.089Z,99810.83
2022-08-11T15:43:01.421Z,99814.45
2022-08-11T15:44:03.899Z,99813.77
2022-08-11T15:45:06.599Z,99809.59
2022-08-11T15:46:10.485Z,99807.41
2022-08-11T15:47:14.539Z,99816.86
2022-08-11T15:48:16.922Z,99811.55
2022-08-11T15:49:21.775Z,99811.57
2022-08-11T15:50:21.986Z,99812.59
2022-08-11T15:51:26.106Z,99812.84
2022-08-11T15:52:30.074Z,99809.80
2022-08-11T15:53:34.077Z,99811.57
2022-08-11T15:54:36.461Z,99801.39
2022-08-11T15:55:39.052Z,99798.90
2022-08-11T15:56:43.118Z,99797.91
2022-08-11T15:57:45.497Z,99803.59
2022-08-11T15:59:10.409Z,99800.51
2022-08-11T15:59:52.002Z,99802.45
2022-08-11T16:00:58.964Z,99795.80
2022-08-11T16:01:58.495Z,99793.78
2022-08-11T16:03:02.571Z,99800.36
2022-08-11T16:04:07.057Z,99799.48
2022-08-11T16:05:07.547Z,99799.02
2022-08-11T16:06:10.057Z,99799.71
2022-08-11T16:07:12.824Z,99800.38
2022-08-11T16:08:15.172Z,99800.58
2022-08-11T16:09:19.334Z,99795.15
2022-08-11T16:10:21.582Z,99797.13
2022-08-11T16:11:25.699Z,99798.10
2022-08-11T16:12:28.147Z,99794.53
2022-08-11T16:13:30.653Z,99795.02
2022-08-11T16:14:33.191Z,99798.17
2022-08-11T16:15:35.697Z,99794.53
2022-08-11T16:16:38.252Z,99794.81
2022-08-11T16:17:40.884Z,99800.23
2022-08-11T16:18:44.902Z,99788.87
2022-08-11T16:19:48.976Z,99787.02
2022-08-11T16:20:52.963Z,99784.39
2022-08-11T16:21:55.310Z,99761.13
2022-08-11T16:23:02.256Z,99778.95
2022-08-11T16:24:03.488Z,99784.77
2022-08-11T16:25:57.922Z,99780.67
2022-08-11T16:27:06.795Z,99781.19
2022-08-11T16:27:13.802Z,99786.67
2022-08-11T16:28:14.574Z,99778.88
2022-08-11T16:29:17.580Z,99785.81
2022-08-11T16:30:19.927Z,99782.03
2022-08-11T16:31:22.413Z,99778.28
2022-08-11T16:32:26.550Z,99787.24
2022-08-11T16:33:49.309Z,99778.67
2022-08-11T16:34:31.337Z,99778.13
2022-08-11T16:35:35.490Z,99780.72
2022-08-11T16:36:39.467Z,99778.75
2022-08-11T16:37:43.423Z,99780.52
2022-08-11T16:38:45.785Z,99767.80
2022-08-11T16:39:50.708Z,99762.94
2022-08-11T16:40:52.396Z,99770.80
2022-08-11T16:41:54.767Z,99770.12
2022-08-11T16:43:00.025Z,99763.41
2022-08-11T16:43:59.808Z,99766.64
2022-08-11T16:45:03.912Z,99765.27
2022-08-11T16:46:06.314Z,99767.19
2022-08-11T16:47:08.864Z,99764.99
2022-08-11T16:48:36.745Z,99765.79
2022-08-11T16:49:15.365Z,99766.10
2022-08-11T16:50:17.822Z,99767.05
2022-08-11T16:51:20.350Z,99768.13
2022-08-11T16:52:22.870Z,99766.60
2022-08-11T16:53:49.044Z,99767.95
2022-08-11T16:54:29.492Z,99768.94
2022-08-11T16:55:40.592Z,99765.65
2022-08-11T16:56:34.457Z,99763.59
2022-08-11T16:57:36.963Z,99763.77
2022-08-11T16:58:41.117Z,99767.34
2022-08-11T16:59:43.479Z,99762.98
2022-08-11T17:00:46.046Z,99757.02
2022-08-11T17:01:48.471Z,99761.63
2022-08-11T17:02:50.930Z,99758.86
2022-08-11T17:03:55.069Z,99762.35
2022-08-11T17:04:57.548Z,99756.40
2022-08-11T17:06:00.022Z,99753.44
2022-08-11T17:07:02.534Z,99758.84
2022-08-11T17:08:05.090Z,99754.86
2022-08-11T17:09:07.525Z,99755.63
2022-08-11T17:10:31.459Z,99752.20
2022-08-11T17:11:12.535Z,99753.45
2022-08-11T17:12:16.661Z,99752.17
2022-08-11T17:21:47.624Z,99742.93
2022-08-11T17:22:50.157Z,99743.52
2022-08-11T17:23:52.671Z,99741.64
2022-08-11T17:24:56.804Z,99740.48
2022-08-11T17:26:04.074Z,99736.83
2022-08-11T17:27:01.677Z,99734.24
2022-08-11T17:28:04.174Z,99732.64
2022-08-11T17:29:06.708Z,99733.98
2022-08-11T17:30:09.457Z,99735.61
2022-08-11T17:31:18.488Z,99734.25
2022-08-11T17:32:15.947Z,99731.59
2022-08-11T17:33:18.556Z,99728.92
2022-08-11T17:34:22.656Z,99731.32
2022-08-11T17:35:25.176Z,99730.30
2022-08-11T17:36:29.327Z,99727.70
2022-08-11T17:37:31.694Z,99731.13
2022-08-11T17:38:34.205Z,99727.25
2022-08-11T17:39:36.730Z,99727.49
2022-08-11T17:40:39.187Z,99730.25
2022-08-11T17:41:41.947Z,99732.99
2022-08-11T17:42:46.009Z,99734.34
2022-08-11T17:43:48.389Z,99733.41
2022-08-11T17:44:50.879Z,99734.34
2022-08-11T17:45:53.362Z,99732.16
2022-08-11T17:46:55.861Z,99733.83
2022-08-11T17:47:58.400Z,99734.53
2022-08-11T17:49:00.914Z,99734.39
2022-08-11T17:50:09.043Z,99733.61
2022-08-11T17:51:08.938Z,99736.75
2022-08-11T17:52:11.330Z,99737.58
2022-08-11T17:53:13.849Z,99738.80
2022-08-11T17:54:23.650Z,99732.37
2022-08-11T17:55:51.262Z,99738.56
2022-08-11T17:56:21.230Z,99731.12
2022-08-11T17:57:25.364Z,99737.26
2022-08-11T17:58:27.726Z,99737.08
2022-08-11T17:59:32.313Z,99736.63
2022-08-11T18:00:32.686Z,99733.05
2022-08-11T18:01:36.871Z,99737.69
2022-08-11T18:02:39.085Z,99740.23
2022-08-11T18:03:41.583Z,99737.92
2022-08-11T18:04:45.625Z,99740.41
2022-08-11T18:05:48.063Z,99746.30
2022-08-11T18:06:50.538Z,99745.47
2022-08-11T18:07:52.991Z,99749.61
2022-08-11T18:08:55.503Z,99746.91
2022-08-11T18:09:57.951Z,99748.92
2022-08-11T18:11:00.448Z,99747.63
2022-08-11T18:12:11.336Z,99745.44
2022-08-11T18:13:06.869Z,99746.11
2022-08-11T18:14:10.992Z,99751.45
2022-08-11T18:15:13.314Z,99753.98
2022-08-11T18:16:17.390Z,99753.84
2022-08-11T18:17:19.781Z,99752.91
2022-08-11T18:18:22.223Z,99754.55
2022-08-11T18:19:24.683Z,99751.81
2022-08-11T18:20:27.181Z,99753.77
2022-08-11T18:21:29.665Z,99753.54
2022-08-11T18:22:32.128Z,99758.16
2022-08-11T18:23:40.425Z,99753.34
2022-08-11T18:24:38.681Z,99752.66
2022-08-11T18:25:45.170Z,99751.25
2022-08-11T18:26:43.506Z,99747.01
2022-08-11T18:27:45.985Z,99752.75
2022-08-11T18:28:48.445Z,99742.72
2022-08-11T18:29:50.908Z,99751.33
2022-08-11T18:30:53.827Z,99749.71
2022-08-11T18:31:57.469Z,99754.23
2022-08-11T18:33:17.132Z,99750.15
2022-08-11T18:34:07.241Z,99751.08
2022-08-11T18:35:06.181Z,99748.59
2022-08-11T18:36:08.675Z,99750.77
2022-08-11T18:37:19.609Z,99749.36
2022-08-11T18:38:15.136Z,99747.61
2022-08-11T18:39:17.667Z,99749.52
2022-08-11T18:40:21.690Z,99747.53
2022-08-11T18:41:25.630Z,99749.95
2022-08-11T18:42:30.050Z,99748.14
2022-08-11T18:43:31.907Z,99745.26
2022-08-11T18:44:35.924Z,99743.79
2022-08-11T18:45:43.136Z,99747.89
2022-08-11T18:46:40.785Z,99743.72
2022-08-11T18:47:43.250Z,99744.48
2022-08-11T18:57:14.811Z,99744.83
2022-08-11T18:58:17.406Z,99740.23
2022-08-11T18:59:19.929Z,99745.56
2022-08-11T19:00:22.537Z,99743.02
2022-08-11T19:01:25.054Z,99743.89
2022-08-11T19:02:27.509Z,99739.19
2022-08-11T19:12:00.969Z,99747.73
2022-08-11T19:21:34.809Z,99757.00
2022-08-11T19:31:07.242Z,99756.98
2022-08-11T19:40:41.221Z,99759.28